createdAt,value
2023-05-10T00:00:21.364Z,0.93
2023-05-10T00:02:52.891Z,0.80
2023-05-10T00:05:26.856Z,0.60
2023-05-10T00:07:56.098Z,0.53
2023-05-10T00:10:25.030Z,0.70
2023-05-10T00:12:54.473Z,0.77
2023-05-10T00:15:28.549Z,0.63
2023-05-10T00:17:58.263Z,0.73
2023-05-10T00:20:27.357Z,0.70
2023-05-10T00:22:56.604Z,0.83
2023-05-10T00:25:25.718Z,0.70
2023-05-10T00:27:58.089Z,1.10
2023-05-10T00:30:25.320Z,0.90
2023-05-10T00:32:54.683Z,0.90
2023-05-10T00:35:22.784Z,1.27
2023-05-10T00:37:56.395Z,1.33
2023-05-10T00:40:29.523Z,1.30
2023-05-10T00:43:02.405Z,1.20
2023-05-10T00:45:30.942Z,1.00
2023-05-10T00:48:06.381Z,0.90
2023-05-10T00:50:39.697Z,1.20
2023-05-10T00:53:10.095Z,1.20
2023-05-10T00:55:38.088Z,0.93
2023-05-10T00:58:10.611Z,1.10
2023-05-10T01:00:44.885Z,1.63
2023-05-10T01:03:14.041Z,1.10
2023-05-10T01:05:43.413Z,1.00
2023-05-10T01:08:10.237Z,1.10
2023-05-10T01:10:37.199Z,1.00
2023-05-10T01:13:08.673Z,0.80
2023-05-10T01:15:38.847Z,0.83
2023-05-10T01:18:10.301Z,1.10
2023-05-10T01:20:48.163Z,1.10
2023-05-10T01:24:13.826Z,0.83
2023-05-10T01:27:16.784Z,0.70
2023-05-10T01:30:36.104Z,0.87
2023-05-10T01:33:20.615Z,0.80
2023-05-10T01:35:50.397Z,0.93
2023-05-10T01:38:48.388Z,0.77
2023-05-10T01:41:36.891Z,0.87
2023-05-10T01:44:29.934Z,0.80
2023-05-10T01:47:23.367Z,0.70
2023-05-10T01:50:02.333Z,0.83
2023-05-10T01:52:42.108Z,0.80
2023-05-10T01:55:21.712Z,1.00
2023-05-10T01:58:00.906Z,0.60
2023-05-10T02:00:37.549Z,0.80
2023-05-10T02:03:09.750Z,0.80
2023-05-10T02:05:42.941Z,0.70
2023-05-10T02:08:18.480Z,0.73
2023-05-10T02:10:47.920Z,0.70
2023-05-10T02:13:17.673Z,0.70
2023-05-10T02:15:48.279Z,0.80
2023-05-10T02:18:16.883Z,0.70
2023-05-10T02:20:50.018Z,0.80
2023-05-10T02:23:19.752Z,0.80
2023-05-10T02:25:49.049Z,0.70
2023-05-10T02:28:16.773Z,0.70
2023-05-10T02:30:48.431Z,0.60
2023-05-10T02:33:20.995Z,0.73
2023-05-10T02:35:49.486Z,0.70
2023-05-10T02:38:19.883Z,0.87
2023-05-10T02:40:51.269Z,0.80
2023-05-10T02:43:29.146Z,0.90
2023-05-10T02:45:56.931Z,1.37
2023-05-10T02:48:26.365Z,0.87
2023-05-10T02:50:59.363Z,1.27
2023-05-10T02:53:34.064Z,0.70
2023-05-10T02:56:08.740Z,0.93
2023-05-10T02:58:38.133Z,0.80
2023-05-10T03:01:08.689Z,0.80
2023-05-10T03:03:38.810Z,0.90
2023-05-10T03:06:07.964Z,0.90
2023-05-10T03:08:37.472Z,1.07
2023-05-10T03:11:26.625Z,0.80
2023-05-10T03:14:24.857Z,0.60
2023-05-10T03:17:29.132Z,1.00
2023-05-10T03:20:07.345Z,0.90
2023-05-10T03:22:53.128Z,0.80
2023-05-10T03:25:23.739Z,0.80
2023-05-10T03:27:56.228Z,0.70
2023-05-10T03:30:25.664Z,0.80
2023-05-10T03:32:52.650Z,0.77
2023-05-10T03:35:19.585Z,0.80
2023-05-10T03:37:49.833Z,0.90
2023-05-10T03:40:17.121Z,0.83
2023-05-10T03:42:46.568Z,0.87
2023-05-10T03:45:17.829Z,0.80
2023-05-10T03:47:44.831Z,1.00
2023-05-10T03:50:14.261Z,0.90
2023-05-10T03:52:42.060Z,0.90
2023-05-10T03:55:11.526Z,0.67
2023-05-10T03:57:41.029Z,0.90
2023-05-10T04:00:11.197Z,1.00
2023-05-10T04:02:44.023Z,0.90
2023-05-10T04:05:19.685Z,0.80
2023-05-10T04:07:52.001Z,1.07
2023-05-10T04:10:22.139Z,0.80
2023-05-10T04:12:49.121Z,0.80
2023-05-10T04:15:20.808Z,0.90
2023-05-10T04:17:51.302Z,0.97
2023-05-10T04:20:18.542Z,0.87
2023-05-10T04:22:45.436Z,1.03
2023-05-10T04:25:12.561Z,1.07
2023-05-10T04:27:41.733Z,1.10
2023-05-10T04:30:09.209Z,1.00
2023-05-10T04:32:36.087Z,1.00
2023-05-10T04:35:05.655Z,0.80
2023-05-10T04:37:34.598Z,1.10
2023-05-10T04:40:04.844Z,0.83
2023-05-10T04:42:31.643Z,1.10
2023-05-10T04:45:00.649Z,1.03
2023-05-10T04:47:29.858Z,1.00
2023-05-10T04:49:56.678Z,1.00
2023-05-10T04:52:23.562Z,0.80
2023-05-10T04:54:52.943Z,1.00
2023-05-10T04:57:19.751Z,1.23
2023-05-10T04:59:48.025Z,0.90
2023-05-10T05:02:21.265Z,1.00
2023-05-10T05:04:51.036Z,1.00
2023-05-10T05:07:17.932Z,1.10
2023-05-10T05:09:44.880Z,1.00
2023-05-10T05:12:14.891Z,1.20
2023-05-10T05:14:44.331Z,1.30
2023-05-10T05:17:14.044Z,1.40
2023-05-10T05:19:43.507Z,1.10
2023-05-10T05:22:12.646Z,1.17
2023-05-10T05:24:42.448Z,1.13
2023-05-10T05:27:13.796Z,1.47
2023-05-10T05:29:40.622Z,1.30
2023-05-10T05:32:09.348Z,1.40
2023-05-10T05:34:38.614Z,1.40
2023-05-10T05:37:07.643Z,1.43
2023-05-10T05:39:37.501Z,1.30
2023-05-10T05:42:06.635Z,1.47
2023-05-10T05:44:33.435Z,2.17
2023-05-10T05:47:02.698Z,1.20
2023-05-10T05:49:34.197Z,1.50
2023-05-10T05:52:05.426Z,1.73
2023-05-10T05:54:32.843Z,1.60
2023-05-10T05:57:02.138Z,1.50
2023-05-10T05:59:29.152Z,1.50
2023-05-10T06:01:58.382Z,1.77
2023-05-10T06:04:25.353Z,1.83
2023-05-10T06:06:52.309Z,1.50
2023-05-10T06:09:22.283Z,1.67
2023-05-10T06:11:51.466Z,1.53
2023-05-10T06:14:20.896Z,1.67
2023-05-10T06:16:50.266Z,1.77
2023-05-10T06:19:19.549Z,2.07
2023-05-10T06:21:48.977Z,1.80
2023-05-10T06:24:17.871Z,1.70
2023-05-10T06:26:44.729Z,1.63
2023-05-10T06:29:13.996Z,1.70
2023-05-10T06:31:43.074Z,1.80
2023-05-10T06:34:10.166Z,1.70
2023-05-10T06:36:36.932Z,1.50
2023-05-10T06:39:06.609Z,1.60
2023-05-10T06:41:35.769Z,1.90
2023-05-10T06:44:07.219Z,1.50
2023-05-10T06:46:36.453Z,2.10
2023-05-10T06:49:08.750Z,2.07
2023-05-10T06:51:37.626Z,1.67
2023-05-10T06:54:04.475Z,1.83
2023-05-10T06:56:36.200Z,1.50
2023-05-10T06:59:03.803Z,1.87
2023-05-10T07:01:30.694Z,2.10
2023-05-10T07:03:57.559Z,1.90
2023-05-10T07:06:33.415Z,2.00
2023-05-10T07:09:06.288Z,1.77
2023-05-10T07:11:35.480Z,2.00
2023-05-10T07:14:04.468Z,1.60
2023-05-10T07:16:34.530Z,1.80
2023-05-10T07:19:03.590Z,2.20
2023-05-10T07:21:33.198Z,1.77
2023-05-10T07:24:01.188Z,1.57
2023-05-10T07:26:30.548Z,1.87
2023-05-10T07:28:57.481Z,2.20
2023-05-10T07:31:26.845Z,1.77
2023-05-10T07:33:55.910Z,1.97
2023-05-10T07:36:22.714Z,2.20
2023-05-10T07:38:50.426Z,1.60
2023-05-10T07:41:19.480Z,1.80
2023-05-10T07:43:48.428Z,1.70
2023-05-10T07:46:17.494Z,1.80
2023-05-10T07:48:44.425Z,1.80
2023-05-10T07:51:15.613Z,2.07
2023-05-10T07:53:47.122Z,1.47
2023-05-10T07:56:30.332Z,2.00
2023-05-10T07:58:57.739Z,1.83
2023-05-10T08:01:27.346Z,2.37
2023-05-10T08:03:56.875Z,1.60
2023-05-10T08:06:29.430Z,1.60
2023-05-10T08:09:00.918Z,1.97
2023-05-10T08:11:31.255Z,1.80
2023-05-10T08:13:58.453Z,1.50
2023-05-10T08:16:27.639Z,1.60
2023-05-10T08:19:01.573Z,1.90
2023-05-10T08:21:32.223Z,3.07
2023-05-10T08:23:59.147Z,2.00
2023-05-10T08:26:26.883Z,1.80
2023-05-10T08:28:55.799Z,2.37
2023-05-10T08:31:27.110Z,1.83
2023-05-10T08:33:58.597Z,1.80
2023-05-10T08:36:25.545Z,1.93
2023-05-10T08:38:53.096Z,1.73
2023-05-10T08:41:26.661Z,1.43
2023-05-10T08:43:56.058Z,1.63
2023-05-10T08:46:24.241Z,1.20
2023-05-10T08:48:55.752Z,1.70
2023-05-10T08:51:29.207Z,1.80
2023-05-10T08:54:01.551Z,1.50
2023-05-10T08:56:28.670Z,1.40
2023-05-10T08:58:58.095Z,1.40
2023-05-10T09:01:27.826Z,1.53
2023-05-10T09:04:03.877Z,1.40
2023-05-10T09:06:33.471Z,1.90
2023-05-10T09:09:01.332Z,1.73
2023-05-10T09:11:30.020Z,1.57
2023-05-10T09:14:04.382Z,1.63
2023-05-10T09:16:31.330Z,1.30
2023-05-10T09:18:58.302Z,1.40
2023-05-10T09:21:31.647Z,1.67
2023-05-10T09:24:10.385Z,1.57
2023-05-10T09:26:51.097Z,1.37
2023-05-10T09:29:18.378Z,1.97
2023-05-10T09:31:55.742Z,1.60
2023-05-10T09:34:36.372Z,1.50
2023-05-10T09:37:05.385Z,1.50
2023-05-10T09:39:39.649Z,1.70
2023-05-10T09:42:13.301Z,1.63
2023-05-10T09:44:44.293Z,1.63
2023-05-10T09:47:19.921Z,1.67
2023-05-10T09:49:56.167Z,1.73
2023-05-10T09:52:51.577Z,1.17
2023-05-10T09:55:21.582Z,1.20
2023-05-10T09:58:03.430Z,1.57
2023-05-10T10:00:41.135Z,1.10
2023-05-10T10:03:17.188Z,1.20
2023-05-10T10:05:45.758Z,1.20
2023-05-10T10:08:15.722Z,0.90
2023-05-10T10:10:45.644Z,1.30
2023-05-10T10:13:12.746Z,1.37
2023-05-10T10:15:40.097Z,2.33
2023-05-10T10:18:07.839Z,1.70
2023-05-10T10:20:38.693Z,1.23
2023-05-10T10:23:09.592Z,1.30
2023-05-10T10:25:36.915Z,1.13
2023-05-10T10:28:35.117Z,1.10
2023-05-10T10:31:36.126Z,1.20
2023-05-10T10:34:09.620Z,1.50
2023-05-10T10:36:48.052Z,1.10
2023-05-10T10:39:16.161Z,1.20
2023-05-10T10:41:57.803Z,0.97
2023-05-10T10:44:25.963Z,1.30
2023-05-10T10:47:30.515Z,1.20
2023-05-10T10:50:08.978Z,1.10
2023-05-10T10:52:44.619Z,0.90
2023-05-10T10:55:15.951Z,1.20
2023-05-10T10:58:01.312Z,0.90
2023-05-10T11:00:37.226Z,0.77
2023-05-10T11:03:08.400Z,1.03
2023-05-10T11:05:47.460Z,0.70
2023-05-10T11:08:28.220Z,1.00
2023-05-10T11:11:01.222Z,0.87
2023-05-10T11:13:49.971Z,1.43
2023-05-10T11:16:21.683Z,1.00
2023-05-10T11:19:19.112Z,1.03
2023-05-10T11:22:17.831Z,0.93
2023-05-10T11:24:59.475Z,0.80
2023-05-10T11:27:26.630Z,0.80
2023-05-10T11:29:55.881Z,1.10
2023-05-10T11:32:25.486Z,1.30
2023-05-10T11:34:54.546Z,0.90
2023-05-10T11:37:23.552Z,1.13
2023-05-10T11:39:55.786Z,0.60
2023-05-10T11:42:22.710Z,0.83
2023-05-10T11:44:52.673Z,1.17
2023-05-10T11:47:24.790Z,0.70
2023-05-10T11:49:53.136Z,0.60
2023-05-10T11:52:20.872Z,0.50
2023-05-10T11:54:54.498Z,1.00
2023-05-10T11:57:29.468Z,0.70
2023-05-10T11:59:58.775Z,0.63
2023-05-10T12:02:30.684Z,0.77
2023-05-10T12:05:01.440Z,0.70
2023-05-10T12:07:28.510Z,0.80
2023-05-10T12:10:13.236Z,0.60
2023-05-10T12:12:45.601Z,0.60
2023-05-10T12:15:24.636Z,0.60
2023-05-10T12:17:57.249Z,0.80
2023-05-10T12:20:28.900Z,0.90
2023-05-10T12:23:00.709Z,0.90
2023-05-10T12:25:35.786Z,0.90
2023-05-10T12:28:07.523Z,1.17
2023-05-10T12:30:37.665Z,1.07
2023-05-10T12:33:14.144Z,1.10
2023-05-10T12:35:54.494Z,1.00
2023-05-10T12:38:44.128Z,0.80
2023-05-10T12:41:16.431Z,1.07
2023-05-10T12:43:43.484Z,1.50
2023-05-10T12:46:15.266Z,0.83
2023-05-10T12:48:47.098Z,0.80
2023-05-10T12:51:22.902Z,0.97
2023-05-10T12:53:56.797Z,0.80
2023-05-10T12:56:25.852Z,0.60
2023-05-10T12:58:55.278Z,0.80
2023-05-10T13:01:27.125Z,0.60
2023-05-10T13:03:57.090Z,0.70
2023-05-10T13:06:26.307Z,0.60
2023-05-10T13:08:55.710Z,0.80
2023-05-10T13:11:22.731Z,1.03
2023-05-10T13:13:51.635Z,0.90
2023-05-10T13:16:18.530Z,0.70
2023-05-10T13:18:47.896Z,0.60
2023-05-10T13:21:19.409Z,0.60
2023-05-10T13:23:47.402Z,0.50
2023-05-10T13:26:16.249Z,0.70
2023-05-10T13:28:46.829Z,0.70
2023-05-10T13:31:13.629Z,0.67
2023-05-10T13:33:40.579Z,0.70
2023-05-10T13:36:08.041Z,0.60
2023-05-10T13:38:37.026Z,0.60
2023-05-10T13:41:08.952Z,0.77
2023-05-10T13:43:38.197Z,0.63
2023-05-10T13:46:05.121Z,1.10
2023-05-10T13:48:32.267Z,0.80
2023-05-10T13:51:01.568Z,0.63
2023-05-10T13:53:28.498Z,0.80
2023-05-10T13:55:59.855Z,0.60
2023-05-10T13:58:31.382Z,0.80
2023-05-10T14:00:58.215Z,0.70
2023-05-10T14:03:25.337Z,0.50
2023-05-10T14:05:52.263Z,0.50
2023-05-10T14:08:24.071Z,0.50
2023-05-10T14:10:51.657Z,0.50
2023-05-10T14:13:20.938Z,0.87
2023-05-10T14:15:49.921Z,0.70
2023-05-10T14:18:16.883Z,0.50
2023-05-10T14:20:46.351Z,0.63
2023-05-10T14:23:15.477Z,0.60
2023-05-10T14:25:42.425Z,0.60
2023-05-10T14:28:14.340Z,0.40
2023-05-10T14:30:46.148Z,0.70
2023-05-10T14:33:13.392Z,0.50
2023-05-10T14:35:46.039Z,0.60
2023-05-10T14:38:13.455Z,0.60
2023-05-10T14:40:43.581Z,0.60
2023-05-10T14:43:10.502Z,0.70
2023-05-10T14:45:42.347Z,0.60
2023-05-10T14:48:16.418Z,0.60
2023-05-10T14:50:43.299Z,0.70
2023-05-10T14:53:10.783Z,0.57
2023-05-10T14:55:40.308Z,0.40
2023-05-10T14:58:09.482Z,0.40
2023-05-10T15:00:36.398Z,0.57
2023-05-10T15:03:04.428Z,0.60
2023-05-10T15:05:38.399Z,0.60
2023-05-10T15:08:06.623Z,0.50
2023-05-10T15:10:38.128Z,0.50
2023-05-10T15:13:09.613Z,0.60
2023-05-10T15:15:41.164Z,0.40
2023-05-10T15:18:10.938Z,0.80
2023-05-10T15:20:38.015Z,0.60
2023-05-10T15:23:09.104Z,0.60
2023-05-10T15:25:37.977Z,1.07
2023-05-10T15:28:05.807Z,0.70
2023-05-10T15:30:34.798Z,0.40
2023-05-10T15:33:01.749Z,0.50
2023-05-10T15:35:30.966Z,0.60
2023-05-10T15:38:00.170Z,0.47
2023-05-10T15:40:29.412Z,0.50
2023-05-10T15:42:56.230Z,0.60
2023-05-10T15:45:23.502Z,0.73
2023-05-10T15:47:50.405Z,0.60
2023-05-10T15:50:17.656Z,0.60
2023-05-10T15:52:47.489Z,0.63
2023-05-10T15:55:17.619Z,0.93
2023-05-10T15:57:48.661Z,0.67
2023-05-10T16:00:18.475Z,0.70
2023-05-10T16:02:45.334Z,0.80
2023-05-10T16:05:12.263Z,0.70
2023-05-10T16:07:41.534Z,0.77
2023-05-10T16:10:13.894Z,0.90
2023-05-10T16:12:40.881Z,0.60
2023-05-10T16:15:08.824Z,0.70
2023-05-10T16:17:40.161Z,0.80
2023-05-10T16:20:08.028Z,0.70
2023-05-10T16:22:36.262Z,0.70
2023-05-10T16:25:03.226Z,0.77
2023-05-10T16:27:33.447Z,0.80
2023-05-10T16:30:03.144Z,1.00
2023-05-10T16:32:37.133Z,0.80
2023-05-10T16:35:09.577Z,0.90
2023-05-10T16:37:36.429Z,1.03
2023-05-10T16:40:08.963Z,0.80
2023-05-10T16:42:38.433Z,0.80
2023-05-10T16:45:11.712Z,1.00
2023-05-10T16:47:40.585Z,0.93
2023-05-10T16:50:10.218Z,1.10
2023-05-10T16:52:37.556Z,1.07
2023-05-10T16:55:09.333Z,1.40
2023-05-10T16:57:38.279Z,1.00
2023-05-10T17:00:08.529Z,1.40
2023-05-10T17:02:37.994Z,1.00
2023-05-10T17:05:07.957Z,0.87
2023-05-10T17:07:36.963Z,1.00
2023-05-10T17:10:07.041Z,0.90
2023-05-10T17:12:36.284Z,1.00
2023-05-10T17:15:06.479Z,0.90
2023-05-10T17:17:37.961Z,0.80
2023-05-10T17:20:10.496Z,0.90
2023-05-10T17:22:42.010Z,1.10
2023-05-10T17:25:11.302Z,1.40
2023-05-10T17:27:40.334Z,0.70
2023-05-10T17:30:13.456Z,0.97
2023-05-10T17:32:40.462Z,0.80
2023-05-10T17:35:08.153Z,0.90
2023-05-10T17:37:37.402Z,0.90
2023-05-10T17:40:07.868Z,0.60
2023-05-10T17:42:37.058Z,0.80
2023-05-10T17:45:09.504Z,1.00
2023-05-10T17:47:38.770Z,1.37
2023-05-10T17:50:06.951Z,1.33
2023-05-10T17:52:36.368Z,1.77
2023-05-10T17:55:06.230Z,1.40
2023-05-10T17:57:38.045Z,1.33
2023-05-10T18:00:09.063Z,1.13
2023-05-10T18:02:36.887Z,1.10
2023-05-10T18:05:05.093Z,1.10
2023-05-10T18:07:36.493Z,1.13
2023-05-10T18:10:03.418Z,1.17
2023-05-10T18:12:30.291Z,1.30
2023-05-10T18:14:57.585Z,1.43
2023-05-10T18:17:26.956Z,0.90
2023-05-10T18:19:53.923Z,1.20
2023-05-10T18:22:23.221Z,0.93
2023-05-10T18:24:54.488Z,1.00
2023-05-10T18:27:24.343Z,1.00
2023-05-10T18:29:53.756Z,1.00
2023-05-10T18:32:23.363Z,1.10
2023-05-10T18:34:50.367Z,0.93
2023-05-10T18:37:22.284Z,1.27
2023-05-10T18:39:51.355Z,0.80
2023-05-10T18:42:22.375Z,0.83
2023-05-10T18:44:51.455Z,1.00
2023-05-10T18:47:20.673Z,1.00
2023-05-10T18:49:49.917Z,1.33
2023-05-10T18:52:21.631Z,0.90
2023-05-10T18:54:50.226Z,0.80
2023-05-10T18:57:21.047Z,1.77
2023-05-10T18:59:48.814Z,1.20
2023-05-10T19:02:15.910Z,1.10
2023-05-10T19:04:45.353Z,1.30
2023-05-10T19:07:14.793Z,1.00
2023-05-10T19:09:43.862Z,0.97
2023-05-10T19:12:10.712Z,1.00
2023-05-10T19:14:39.705Z,1.10
2023-05-10T19:17:08.570Z,1.17
2023-05-10T19:19:38.669Z,1.23
2023-05-10T19:22:05.744Z,1.53
2023-05-10T19:24:37.265Z,1.40
2023-05-10T19:27:04.284Z,1.30
2023-05-10T19:29:31.149Z,1.30
2023-05-10T19:31:58.135Z,1.40
2023-05-10T19:34:25.117Z,1.60
2023-05-10T19:36:56.622Z,1.23
2023-05-10T19:39:27.042Z,1.50
2023-05-10T19:41:54.010Z,1.30
2023-05-10T19:44:25.271Z,1.90
2023-05-10T19:46:52.250Z,2.77
2023-05-10T19:49:28.994Z,2.27
2023-05-10T19:51:58.219Z,2.20
2023-05-10T19:54:24.999Z,2.43
2023-05-10T19:56:56.500Z,2.70
2023-05-10T19:59:25.943Z,2.67
2023-05-10T20:01:57.340Z,1.40
2023-05-10T20:04:28.974Z,1.73
2023-05-10T20:07:00.845Z,1.30
2023-05-10T20:09:29.772Z,1.20
2023-05-10T20:11:56.558Z,1.37
2023-05-10T20:14:25.505Z,1.10
2023-05-10T20:16:52.317Z,1.30
2023-05-10T20:19:19.245Z,1.40
2023-05-10T20:21:48.390Z,1.60
2023-05-10T20:24:15.290Z,1.00
2023-05-10T20:26:44.487Z,1.13
2023-05-10T20:29:13.580Z,1.30
2023-05-10T20:31:45.329Z,1.10
2023-05-10T20:34:14.780Z,1.03
2023-05-10T20:36:46.445Z,1.00
2023-05-10T20:39:15.636Z,1.00
2023-05-10T20:41:42.565Z,1.30
2023-05-10T20:44:11.809Z,1.00
2023-05-10T20:46:38.772Z,0.97
2023-05-10T20:49:09.130Z,1.00
2023-05-10T20:51:40.156Z,0.90
2023-05-10T20:54:06.968Z,0.90
2023-05-10T20:56:34.860Z,1.30
2023-05-10T20:59:04.043Z,1.40
2023-05-10T21:01:33.273Z,1.30
2023-05-10T21:04:02.122Z,1.00
2023-05-10T21:06:33.440Z,1.00
2023-05-10T21:09:00.281Z,1.23
2023-05-10T21:11:27.157Z,1.03
2023-05-10T21:14:01.778Z,0.80
2023-05-10T21:16:33.932Z,1.20
2023-05-10T21:19:07.172Z,1.20
2023-05-10T21:21:34.498Z,0.90
2023-05-10T21:24:01.368Z,0.90
2023-05-10T21:26:31.305Z,1.47
2023-05-10T21:28:59.216Z,1.20
2023-05-10T21:31:28.577Z,1.60
2023-05-10T21:33:58.488Z,1.20
2023-05-10T21:36:29.959Z,1.47
2023-05-10T21:38:59.179Z,0.90
2023-05-10T21:41:26.490Z,1.80
2023-05-10T21:43:56.460Z,1.07
2023-05-10T21:46:25.758Z,1.17
2023-05-10T21:48:57.319Z,1.20
2023-05-10T21:51:29.241Z,1.40
2023-05-10T21:53:56.269Z,1.60
2023-05-10T21:56:23.304Z,1.20
2023-05-10T21:58:50.278Z,1.50
2023-05-10T22:01:17.989Z,1.30
2023-05-10T22:03:46.126Z,1.30
2023-05-10T22:06:15.243Z,1.30
2023-05-10T22:08:42.048Z,1.33
2023-05-10T22:11:11.016Z,1.63
2023-05-10T22:13:37.829Z,1.50
2023-05-10T22:16:07.370Z,1.50
2023-05-10T22:18:36.985Z,1.30
2023-05-10T22:21:06.328Z,1.53
2023-05-10T22:23:37.613Z,1.60
2023-05-10T22:26:07.186Z,1.43
2023-05-10T22:28:36.180Z,1.47
2023-05-10T22:31:03.257Z,1.90
2023-05-10T22:33:30.239Z,1.50
2023-05-10T22:35:57.129Z,1.23
2023-05-10T22:38:26.068Z,1.73
2023-05-10T22:40:57.636Z,1.90
2023-05-10T22:43:26.856Z,1.40
2023-05-10T22:45:54.190Z,1.50
2023-05-10T22:48:23.153Z,1.43
2023-05-10T22:50:54.118Z,1.40
2023-05-10T22:53:20.998Z,1.40
2023-05-10T22:55:51.367Z,1.90
2023-05-10T22:58:20.570Z,1.40
2023-05-10T23:00:47.365Z,1.40
2023-05-10T23:03:14.657Z,1.80
2023-05-10T23:05:41.598Z,1.40
2023-05-10T23:08:08.485Z,1.57
2023-05-10T23:10:38.425Z,1.77
2023-05-10T23:13:05.930Z,1.70
2023-05-10T23:15:40.188Z,1.50
2023-05-10T23:18:09.907Z,1.90
2023-05-10T23:20:41.794Z,1.97
2023-05-10T23:23:09.338Z,1.60
2023-05-10T23:25:46.001Z,1.70
2023-05-10T23:28:12.993Z,1.77
2023-05-10T23:30:39.893Z,1.70
2023-05-10T23:33:08.263Z,1.67
2023-05-10T23:35:35.136Z,1.77
2023-05-10T23:38:02.007Z,1.77
2023-05-10T23:40:28.880Z,1.70
2023-05-10T23:42:58.340Z,1.83
2023-05-10T23:45:25.129Z,1.70
2023-05-10T23:47:54.233Z,1.57
2023-05-10T23:50:21.395Z,1.73
2023-05-10T23:52:50.804Z,1.47
2023-05-10T23:55:17.760Z,1.67
2023-05-10T23:57:44.602Z,1.80
